Martinsville, Virginia
Current Conditions -  °F | °C
As of 2:35 PM on Monday 22 Dec 2014 (Local Time) from KMTV Reporting Station
Haze Haze  
Wind Chill: -2°   Ceiling: 400
Heat Index:   Visibility: 2.5mi
Dew Point:   Wind: 8mph
Humidity: 100%   Direction: 40°NE
Pressure: 30.1"   Gusts: NA
Location:  36.69°N, 79.87°W
Report Text: KMTV 221935Z AUTO 04007KT 2 1/2SM BR OVC004 02/02 A3010 RMK AO2 T00190019
Loading
Personal Weather Stations






























Interactive Weather Map New forecast layout! Learn more

10-Day Weather Forecast

Advertisements
Track Severe Weather on mobile